Aérodrome :
LOGIN :

S'inscrire | Disclaimer

   EN    FR    IT 

 










Légende :    VFR   VFR Marginal   IFR   IFR Intensif   IFR Très Intensif
Visi : 
Plafond : 
>= 8 km
>= 3000ft
5 à 8 km
1000 à 3000 ft
1500m à 5 km
500 à 1000 ft
800 à 1500m
200 à 500 ft
< 800m
< 200 ft
Symboles :   Orages  Brouillard  Fortes neiges  Fortes précipitations  Vent > 20 kt
SIGMETs :   Divers  Orages  Givrage  Turbulence  Onde Orograph.  Cendres Volcan.







- Altitude de l'aérodrome : 290 ft
- Code IATA : LAI
- Voir les cartes d'approche


LFRO - Lannion

DERNIER METAR :
  • 251830Z AUTO 02007KT 350V060 6000 ///CB 15/12 Q1017 TEMPO 1300 TSRA BKN011CB

METARs EXPIRÉS :
  • 251800Z AUTO 02008KT 350V060 8000 ///TCU 16/12 Q1017 TEMPO 1300 TSRA BKN011CB
  • 251730Z AUTO 02006KT 330V060 9000 NSC 16/13 Q1017 TEMPO 1300 TSRA BKN011CB
  • 251700Z AUTO 01008KT 8000 FEW010/// SCT048/// BKN074/// ///CB 16/12 Q1017 TEMPO 1300 TSRA BKN011CB
  • 251630Z AUTO 01006KT 320V030 6000 NSC 16/13 Q1017 NOSIG
  • 251600Z AUTO 02006KT 340V090 6000 BKN007/// BKN068/// ///TCU 16/12 Q1017 BECMG BKN021

TAF AMD TAF LFRO
Valide du 25 à 16h jusqu'au 26 à 12h UTC


251636Z 2516/2612 03011KT 9999 BKN021
TEMPO 2517/2521 3000 SHRA SCT011CB BKN013
PROB30
TEMPO 2517/2521 1300 TSRA BKN011CB
TEMPO 2521/2607 3000 BR OVC003
TEMPO 2607/2612 3000 SHRA SCT011CB BKN015
PROB30
TEMPO 2609/2612 1300 TSRA BKN011CB
Pas de NOTAMs connus pour ce terrain.
1 SIGMET publié pour la FIR Brest (LFRR) :
 
Orages noyés dans la masse
LFRR SIGMET 9 VALID 251700/251900 LFPW
LFRR BREST FIR/UIR EMBD TS OBS WI N4915 W00015 - N4815 W00015 - N4800 W00130 - N4845 W00130 - N4915 W00015 TOP FL390 STNR NC=



MET'MAP, la Météo Aéronautique d'un coup d'oeil ! - Copyright ORBIFLY Décembre 2007 - Disclaimer

ORBIFLY MET'MAP TEAM :

Programmation & Développement : Alexandra Zaïnal
Conception & Développement : Baudouin d'Aumeries
Co-Programmation & Développement : Marc-Olivier Méhu
Soutien technique & logistique : Manuel Goepfert

Contact : metmap@orbifly.com




SOURCES & CREDITS :

   NOAA